Time;durP1;ratioP1;P1;durP2;ratioP2;P2;SDS_P1;SDS_P2;PMS_P1;PMS_P2;Temp;Humidity;BMP_temperature;BMP_pressure;BME280_temperature;BME280_humidity;BME280_pressure;Samples;Min_cycle;Max_cycle;Signal;HPM_P1;HPM_P2
2022/05/30 00:01:19;;;;;;;2.53;2.08;;;6.00;99.90;;;;;;5093398;28;20248;-70
2022/05/30 00:03:46;;;;;;;2.65;2.45;;;6.00;99.90;;;;;;5094184;28;20349;-70
2022/05/30 00:06:15;;;;;;;2.58;2.20;;;6.00;99.90;;;;;;5093906;28;20237;-70
2022/05/30 00:08:43;;;;;;;5.30;2.60;;;6.00;99.90;;;;;;5092045;28;20204;-70
2022/05/30 00:11:12;;;;;;;2.45;2.25;;;6.00;99.90;;;;;;5093958;28;20215;-70
2022/05/30 00:13:40;;;;;;;2.65;2.45;;;6.00;99.90;;;;;;5094075;28;20589;-70
2022/05/30 00:16:08;;;;;;;2.28;2.08;;;6.00;99.90;;;;;;5093910;28;20222;-70
2022/05/30 00:18:35;;;;;;;3.33;2.40;;;5.90;99.90;;;;;;5093202;28;20207;-70
2022/05/30 00:21:02;;;;;;;2.70;1.90;;;5.90;99.90;;;;;;5093959;28;20208;-70
2022/05/30 00:23:29;;;;;;;3.15;2.85;;;5.90;99.90;;;;;;5093507;28;20227;-70
2022/05/30 00:25:57;;;;;;;2.67;2.20;;;5.90;99.90;;;;;;5093959;28;20606;-70
2022/05/30 00:28:24;;;;;;;2.35;2.15;;;5.90;99.90;;;;;;5092977;28;20203;-70
2022/05/30 00:30:51;;;;;;;2.67;2.00;;;5.90;99.90;;;;;;5093052;28;20200;-70
2022/05/30 00:33:19;;;;;;;2.45;2.10;;;5.90;99.90;;;;;;5093309;28;20216;-70
2022/05/30 00:35:46;;;;;;;2.50;2.30;;;5.80;99.90;;;;;;5091802;28;20230;-70
2022/05/30 00:38:14;;;;;;;2.25;2.08;;;5.80;99.90;;;;;;5092563;28;20617;-70
2022/05/30 00:40:42;;;;;;;2.47;2.22;;;5.70;99.90;;;;;;5092152;28;20208;-70
2022/05/30 00:43:25;;;;;;;2.10;2.00;;;5.70;99.90;;;;;;5092840;28;20220;-70
2022/05/30 00:45:56;;;;;;;2.85;2.50;;;5.70;99.90;;;;;;5093248;28;20192;-70
2022/05/30 00:48:26;;;;;;;4.10;3.75;;;5.70;99.90;;;;;;5092408;28;20211;-70
2022/05/30 00:50:57;;;;;;;3.28;2.30;;;5.70;99.90;;;;;;5093486;28;20227;-70
2022/05/30 00:53:24;;;;;;;3.78;2.70;;;5.60;99.90;;;;;;5092718;28;20277;-70
2022/05/30 00:55:51;;;;;;;3.65;2.40;;;5.60;99.90;;;;;;5092849;28;20216;-70
2022/05/30 00:58:20;;;;;;;2.47;2.10;;;5.60;99.90;;;;;;5092406;28;20202;-70
2022/05/30 01:00:49;;;;;;;2.40;2.20;;;5.60;99.90;;;;;;5093097;28;20204;-70
2022/05/30 01:08:44;;;;;;;2.20;2.00;;;5.60;99.90;;;;;;5092453;28;20207;-70
2022/05/30 01:11:11;;;;;;;3.17;2.88;;;5.60;99.90;;;;;;5092721;28;20227;-69
2022/05/30 01:13:38;;;;;;;2.38;2.17;;;5.50;99.90;;;;;;5092847;28;20224;-70
2022/05/30 01:16:07;;;;;;;2.75;2.50;;;5.50;99.90;;;;;;5092729;28;20215;-70
2022/05/30 01:18:38;;;;;;;3.10;2.30;;;5.50;99.90;;;;;;5091689;28;20208;-71
2022/05/30 01:21:36;;;;;;;3.65;3.13;;;5.50;99.90;;;;;;5092701;28;20667;-70
2022/05/30 01:24:18;;;;;;;2.53;2.30;;;5.50;99.90;;;;;;5092585;28;20242;-70
2022/05/30 01:27:00;;;;;;;2.47;2.28;;;5.50;99.90;;;;;;5092910;28;20206;-70
2022/05/30 01:29:33;;;;;;;2.72;2.53;;;5.50;99.90;;;;;;5091928;28;20207;-70
2022/05/30 01:32:00;;;;;;;2.88;2.55;;;5.50;99.90;;;;;;5091993;28;20203;-70
2022/05/30 01:34:28;;;;;;;3.80;2.30;;;5.50;99.90;;;;;;5092142;28;20204;-70
2022/05/30 01:36:55;;;;;;;2.58;2.38;;;5.40;99.90;;;;;;5092239;28;20566;-70
2022/05/30 01:39:22;;;;;;;3.78;2.95;;;5.40;99.90;;;;;;5091544;28;20203;-70
2022/05/30 01:41:49;;;;;;;4.43;2.58;;;5.40;99.90;;;;;;5092234;28;20203;-70
2022/05/30 01:44:15;;;;;;;2.72;2.40;;;5.30;99.90;;;;;;5091469;28;20237;-70
2022/05/30 01:46:44;;;;;;;4.25;2.30;;;5.30;99.90;;;;;;5092302;28;20607;-70
2022/05/30 01:49:11;;;;;;;4.55;2.70;;;5.30;99.90;;;;;;5091225;28;20666;-70
2022/05/30 01:51:38;;;;;;;3.88;2.70;;;5.30;99.90;;;;;;5092260;28;20246;-70
2022/05/30 01:54:05;;;;;;;3.33;2.40;;;5.30;99.90;;;;;;5091731;28;20222;-70
2022/05/30 01:56:32;;;;;;;4.03;3.08;;;5.40;99.90;;;;;;5090908;28;20235;-70
2022/05/30 01:58:58;;;;;;;2.88;2.28;;;5.30;99.90;;;;;;5091444;28;20199;-70
2022/05/30 02:01:27;;;;;;;2.67;2.47;;;5.30;99.90;;;;;;5091546;28;20204;-70
2022/05/30 02:03:55;;;;;;;3.00;2.70;;;5.30;99.90;;;;;;5091886;28;20251;-70
2022/05/30 02:06:24;;;;;;;2.58;2.38;;;5.30;99.90;;;;;;5091503;28;20211;-70
2022/05/30 02:08:51;;;;;;;2.83;2.58;;;5.30;99.90;;;;;;5090713;28;20214;-70
2022/05/30 02:11:19;;;;;;;2.60;2.40;;;5.30;99.90;;;;;;5091511;28;20204;-70
2022/05/30 02:13:46;;;;;;;2.60;2.40;;;5.30;99.90;;;;;;5091563;28;20220;-70
2022/05/30 02:19:00;;;;;;;3.45;2.67;;;5.20;99.90;;;;;;5090982;28;20567;-71
2022/05/30 02:21:27;;;;;;;4.43;2.95;;;5.20;99.90;;;;;;5091166;28;20207;-70
2022/05/30 02:23:54;;;;;;;3.45;2.30;;;5.20;99.90;;;;;;5091707;28;20220;-70
2022/05/30 02:26:21;;;;;;;9.63;3.15;;;5.10;99.90;;;;;;5091374;28;20196;-70
2022/05/30 02:28:49;;;;;;;2.72;2.53;;;5.10;99.90;;;;;;5090958;28;20627;-70
2022/05/30 02:31:15;;;;;;;2.85;2.58;;;5.10;99.90;;;;;;5090817;28;20200;-70
2022/05/30 02:36:40;;;;;;;4.43;2.70;;;5.00;99.90;;;;;;5091022;28;20903;-70
2022/05/30 02:39:07;;;;;;;2.85;2.30;;;5.00;99.90;;;;;;5090638;28;20683;-70
2022/05/30 02:41:34;;;;;;;3.45;2.78;;;4.90;99.90;;;;;;5091001;28;20272;-70
2022/05/30 02:44:01;;;;;;;3.65;2.80;;;4.90;99.90;;;;;;5090601;28;20226;-70
2022/05/30 02:46:27;;;;;;;3.38;2.50;;;4.90;99.90;;;;;;5090869;28;20204;-69
2022/05/30 02:48:54;;;;;;;4.03;2.50;;;4.90;99.90;;;;;;5090347;28;20196;-70
2022/05/30 02:51:21;;;;;;;2.58;2.38;;;4.90;99.90;;;;;;5090761;28;20200;-70
2022/05/30 02:53:49;;;;;;;3.75;2.75;;;4.80;99.90;;;;;;5090993;28;20247;-70
2022/05/30 02:56:17;;;;;;;5.07;2.60;;;4.80;99.90;;;;;;5090036;28;20216;-70
2022/05/30 02:58:44;;;;;;;3.30;2.70;;;4.70;99.90;;;;;;5090529;28;20574;-70
2022/05/30 03:01:12;;;;;;;3.10;2.80;;;4.70;99.90;;;;;;5090687;28;20612;-70
2022/05/30 03:03:39;;;;;;;3.33;3.05;;;4.70;99.90;;;;;;5090949;28;20223;-70
2022/05/30 03:06:07;;;;;;;3.38;2.67;;;4.70;99.90;;;;;;5090876;28;20195;-70
2022/05/30 03:08:34;;;;;;;3.13;2.83;;;4.70;99.90;;;;;;5088526;28;20594;-70
2022/05/30 03:11:02;;;;;;;4.32;3.03;;;4.70;99.90;;;;;;5090738;28;20199;-70
2022/05/30 03:13:29;;;;;;;5.40;3.10;;;4.70;99.90;;;;;;5090319;28;20220;-70
2022/05/30 03:15:58;;;;;;;5.00;3.20;;;4.70;99.90;;;;;;5090765;28;20220;-71
2022/05/30 03:18:24;;;;;;;3.65;3.35;;;4.60;99.90;;;;;;5089770;28;20268;-70
2022/05/30 03:20:51;;;;;;;3.20;2.90;;;4.60;99.90;;;;;;5090221;28;20204;-70
2022/05/30 03:23:18;;;;;;;4.03;3.17;;;4.60;99.90;;;;;;5090227;28;20220;-70
2022/05/30 03:25:44;;;;;;;3.03;2.58;;;4.60;99.90;;;;;;5090213;28;20199;-70
2022/05/30 03:28:13;;;;;;;4.43;3.25;;;4.50;99.90;;;;;;5089918;28;20578;-70
2022/05/30 03:30:39;;;;;;;3.15;2.85;;;4.50;99.90;;;;;;5090709;28;20203;-70
2022/05/30 03:33:08;;;;;;;3.28;2.85;;;4.50;99.90;;;;;;5089482;28;20364;-70
2022/05/30 03:35:35;;;;;;;3.40;2.63;;;4.50;99.90;;;;;;5086350;28;20206;-70
2022/05/30 03:38:02;;;;;;;2.88;2.67;;;4.50;99.90;;;;;;5088521;28;20576;-70
2022/05/30 03:40:29;;;;;;;3.30;2.83;;;4.50;99.90;;;;;;5088777;28;20198;-70
2022/05/30 03:42:56;;;;;;;3.17;2.88;;;4.40;99.90;;;;;;5089249;28;20222;-70
2022/05/30 03:45:24;;;;;;;2.90;2.70;;;4.40;99.90;;;;;;5088348;28;20667;-70
2022/05/30 03:47:51;;;;;;;3.40;3.10;;;4.40;99.90;;;;;;5089017;28;20655;-69
2022/05/30 03:50:21;;;;;;;3.10;2.80;;;4.40;99.90;;;;;;5088144;28;20674;-70
2022/05/30 03:52:48;;;;;;;5.10;3.33;;;4.40;99.90;;;;;;5089209;28;20298;-70
2022/05/30 03:55:18;;;;;;;3.10;2.80;;;4.40;99.90;;;;;;5089309;28;20199;-70
2022/05/30 03:57:45;;;;;;;3.53;3.10;;;4.40;99.90;;;;;;5086007;28;20222;-70
2022/05/30 04:00:16;;;;;;;3.78;2.50;;;4.40;99.90;;;;;;5089003;28;20574;-70
2022/05/30 04:02:47;;;;;;;2.65;2.40;;;4.40;99.90;;;;;;5089133;28;20215;-69
2022/05/30 04:05:14;;;;;;;4.50;3.10;;;4.50;99.90;;;;;;5088804;28;20200;-69
2022/05/30 04:07:41;;;;;;;3.72;3.20;;;4.50;99.90;;;;;;5088701;28;20196;-69
2022/05/30 04:10:08;;;;;;;3.38;3.03;;;4.40;99.90;;;;;;5088010;28;20223;-69
2022/05/30 04:12:36;;;;;;;7.90;3.40;;;4.50;99.90;;;;;;5088718;28;20219;-69
2022/05/30 04:15:04;;;;;;;3.80;3.50;;;4.50;99.90;;;;;;5088263;28;20453;-69
2022/05/30 04:17:34;;;;;;;3.47;2.90;;;4.50;99.90;;;;;;5089563;28;20212;-69
2022/05/30 04:20:02;;;;;;;6.32;3.67;;;4.60;99.90;;;;;;5091367;28;20253;-69
2022/05/30 04:22:30;;;;;;;3.92;3.50;;;4.60;99.90;;;;;;5092580;28;20227;-70
2022/05/30 04:24:57;;;;;;;3.50;3.03;;;4.60;99.90;;;;;;5093893;28;20195;-69
2022/05/30 04:27:23;;;;;;;3.38;3.08;;;4.70;99.90;;;;;;5092953;28;20200;-69
2022/05/30 04:29:50;;;;;;;3.45;3.15;;;4.70;99.90;;;;;;5091928;28;20575;-69
2022/05/30 04:32:17;;;;;;;3.63;3.33;;;4.80;99.90;;;;;;5091255;28;20223;-69
2022/05/30 04:34:44;;;;;;;3.40;3.10;;;4.90;99.90;;;;;;5093167;28;20204;-69
2022/05/30 04:37:12;;;;;;;4.00;3.25;;;4.90;99.90;;;;;;5093612;28;20595;-69
2022/05/30 04:39:39;;;;;;;3.67;2.88;;;5.00;99.90;;;;;;5093318;28;20207;-70
2022/05/30 04:42:06;;;;;;;3.72;3.42;;;5.00;99.90;;;;;;5093647;28;20232;-69
2022/05/30 04:44:33;;;;;;;4.88;3.80;;;5.10;99.90;;;;;;5093382;28;20212;-69
2022/05/30 04:47:00;;;;;;;3.75;3.40;;;5.20;99.90;;;;;;5093064;28;20202;-69
2022/05/30 04:49:27;;;;;;;3.20;2.92;;;5.30;99.90;;;;;;5090889;28;20199;-69
2022/05/30 04:51:54;;;;;;;3.90;3.20;;;5.40;99.90;;;;;;5092917;28;20707;-69
2022/05/30 04:54:24;;;;;;;3.30;3.00;;;5.50;99.90;;;;;;5093033;28;20202;-69
2022/05/30 04:56:52;;;;;;;3.25;2.95;;;5.60;99.90;;;;;;5093607;28;20266;-69
2022/05/30 04:59:19;;;;;;;2.65;2.45;;;5.60;99.90;;;;;;5092296;28;20666;-69
2022/05/30 05:01:45;;;;;;;3.35;3.05;;;5.70;99.90;;;;;;5093393;28;20200;-70
2022/05/30 05:04:12;;;;;;;4.20;3.67;;;5.80;99.90;;;;;;5092961;28;20214;-69
2022/05/30 05:06:39;;;;;;;3.78;3.35;;;5.90;99.90;;;;;;5093067;28;20198;-69
2022/05/30 05:09:51;;;;;;;4.45;3.65;;;6.00;99.90;;;;;;5134410;22;20263;-90
2022/05/30 05:12:19;;;;;;;3.72;3.42;;;6.10;99.90;;;;;;5110527;28;20187;-89
2022/05/30 05:14:46;;;;;;;4.25;3.50;;;6.20;99.90;;;;;;5133426;28;20223;-89
2022/05/30 05:19:42;;;;;;;4.53;3.75;;;6.40;99.90;;;;;;5050500;28;20636;-71
2022/05/30 05:22:14;;;;;;;3.78;3.45;;;6.50;99.90;;;;;;5072409;28;20723;-72
2022/05/30 05:24:43;;;;;;;3.88;3.53;;;6.70;99.90;;;;;;5070290;28;20663;-72
2022/05/30 05:27:10;;;;;;;4.18;3.75;;;6.80;99.90;;;;;;5072426;28;20200;-72
2022/05/30 05:29:36;;;;;;;5.72;3.85;;;6.80;99.90;;;;;;5071687;28;20212;-72
2022/05/30 05:32:04;;;;;;;5.68;4.30;;;7.00;99.90;;;;;;5070573;28;20209;-72
2022/05/30 05:34:31;;;;;;;7.05;4.47;;;7.10;99.90;;;;;;5072107;28;20631;-72
2022/05/30 05:36:57;;;;;;;4.72;4.22;;;7.20;99.90;;;;;;5071965;28;20695;-72
2022/05/30 05:39:24;;;;;;;5.03;3.85;;;7.30;99.90;;;;;;5071444;28;20204;-72
2022/05/30 05:41:52;;;;;;;4.10;3.80;;;7.40;99.90;;;;;;5071830;28;20215;-72
2022/05/30 05:44:19;;;;;;;4.82;4.10;;;7.50;99.90;;;;;;5071920;28;20660;-72
2022/05/30 05:46:46;;;;;;;4.85;3.95;;;7.60;99.90;;;;;;5072160;28;20200;-71
2022/05/30 05:49:13;;;;;;;3.78;3.47;;;7.70;99.90;;;;;;5071210;28;20196;-71
2022/05/30 05:51:41;;;;;;;4.20;3.60;;;7.90;99.90;;;;;;5071859;28;20634;-71
2022/05/30 05:54:08;;;;;;;3.95;3.45;;;8.00;99.90;;;;;;5071341;28;20229;-71
2022/05/30 05:56:36;;;;;;;3.40;3.10;;;8.10;99.90;;;;;;5071467;28;20587;-71
2022/05/30 05:59:04;;;;;;;4.28;3.70;;;8.20;99.90;;;;;;5070808;28;20207;-72
2022/05/30 06:01:34;;;;;;;7.40;4.10;;;8.30;99.90;;;;;;5072094;28;20204;-72
2022/05/30 06:04:03;;;;;;;4.85;3.80;;;8.40;99.90;;;;;;5071160;28;20224;-71
2022/05/30 06:06:30;;;;;;;4.13;3.72;;;8.60;99.90;;;;;;5071385;28;20243;-72
2022/05/30 06:08:58;;;;;;;5.85;4.18;;;8.70;99.90;;;;;;5070551;28;20211;-72
2022/05/30 06:11:25;;;;;;;4.18;3.42;;;8.90;99.90;;;;;;5071559;28;20609;-72
2022/05/30 06:13:52;;;;;;;3.67;3.28;;;8.90;99.90;;;;;;5069756;28;20558;-72
2022/05/30 06:16:22;;;;;;;4.72;3.70;;;9.00;99.90;;;;;;5071321;28;20200;-71
2022/05/30 06:18:50;;;;;;;3.80;3.40;;;9.10;99.90;;;;;;5070674;28;20581;-70
2022/05/30 06:21:17;;;;;;;3.22;2.92;;;9.30;99.90;;;;;;5071163;28;20211;-70
2022/05/30 06:23:46;;;;;;;6.80;3.90;;;9.30;99.90;;;;;;5071356;28;20232;-70
2022/05/30 06:26:13;;;;;;;5.72;3.47;;;9.50;99.90;;;;;;5071353;28;20222;-70
2022/05/30 06:28:41;;;;;;;3.75;3.40;;;9.60;99.90;;;;;;5070919;28;20207;-71
2022/05/30 06:31:09;;;;;;;4.03;3.50;;;9.70;99.90;;;;;;5070977;28;20200;-70
2022/05/30 06:33:37;;;;;;;4.55;3.60;;;9.80;99.90;;;;;;5071233;28;20273;-70
2022/05/30 06:36:07;;;;;;;3.90;3.47;;;9.90;99.90;;;;;;5071178;28;20201;-70
2022/05/30 06:38:33;;;;;;;4.38;3.67;;;10.00;99.90;;;;;;5070796;28;20216;-70
2022/05/30 06:41:10;;;;;;;4.43;3.55;;;10.10;99.90;;;;;;5071086;28;20201;-70
2022/05/30 06:43:37;;;;;;;5.20;3.92;;;10.10;99.90;;;;;;5071255;28;20223;-71
2022/05/30 06:46:04;;;;;;;4.10;3.70;;;10.20;99.90;;;;;;5071026;28;20663;-71
2022/05/30 06:48:30;;;;;;;4.25;3.65;;;10.30;99.90;;;;;;5069216;28;20548;-71
2022/05/30 06:50:59;;;;;;;5.30;3.70;;;10.40;99.90;;;;;;5070601;28;20209;-71
2022/05/30 06:53:26;;;;;;;4.13;3.35;;;10.40;99.90;;;;;;5070227;28;20252;-71
2022/05/30 06:55:53;;;;;;;4.43;4.00;;;10.50;99.90;;;;;;5070718;28;20207;-71
2022/05/30 06:58:20;;;;;;;4.65;3.17;;;10.60;99.90;;;;;;5070222;28;20231;-71
2022/05/30 07:00:48;;;;;;;3.50;3.13;;;10.70;99.90;;;;;;5070698;28;20592;-70
2022/05/30 07:03:15;;;;;;;4.03;3.25;;;10.80;99.90;;;;;;5070718;28;20216;-72
2022/05/30 07:05:44;;;;;;;5.15;3.22;;;11.00;99.90;;;;;;5070205;28;20208;-71
2022/05/30 07:08:13;;;;;;;4.55;4.05;;;11.20;99.90;;;;;;5069959;28;20207;-71
2022/05/30 07:10:41;;;;;;;3.60;3.25;;;11.40;99.90;;;;;;5070607;28;20203;-71
2022/05/30 07:13:09;;;;;;;4.28;3.60;;;11.50;99.90;;;;;;5070228;28;20277;-71
2022/05/30 07:15:36;;;;;;;4.53;3.05;;;11.60;99.90;;;;;;5070674;28;20262;-71
2022/05/30 07:18:09;;;;;;;4.45;3.80;;;11.70;99.90;;;;;;5069153;28;20243;-71
2022/05/30 07:20:35;;;;;;;6.32;3.33;;;11.80;99.90;;;;;;5070851;28;20201;-71
2022/05/30 07:23:02;;;;;;;3.70;3.40;;;11.90;99.90;;;;;;5069979;28;20240;-71
2022/05/30 07:25:30;;;;;;;4.22;3.47;;;12.00;99.90;;;;;;5070629;28;20215;-71
2022/05/30 07:27:57;;;;;;;4.33;3.77;;;12.10;99.90;;;;;;5069952;28;20245;-71
2022/05/30 07:30:24;;;;;;;6.03;4.22;;;12.20;99.90;;;;;;5069622;28;20458;-71
2022/05/30 07:32:50;;;;;;;6.57;3.80;;;12.20;99.90;;;;;;5070194;28;20596;-70
2022/05/30 07:35:17;;;;;;;5.63;3.55;;;12.30;99.90;;;;;;5070153;28;20459;-70
2022/05/30 07:37:44;;;;;;;3.77;3.47;;;12.40;99.90;;;;;;5070116;28;20231;-71
2022/05/30 07:40:12;;;;;;;4.77;3.73;;;12.50;99.90;;;;;;5069403;28;20466;-70
2022/05/30 07:42:40;;;;;;;4.03;3.10;;;12.50;99.90;;;;;;5068767;28;20489;-70
2022/05/30 07:45:09;;;;;;;4.55;3.30;;;12.40;99.90;;;;;;5068756;28;20208;-70
2022/05/30 07:47:35;;;;;;;5.05;3.38;;;12.40;99.90;;;;;;5069465;28;20223;-71
2022/05/30 07:50:03;;;;;;;7.15;3.60;;;12.40;99.90;;;;;;5068780;28;20200;-70
2022/05/30 07:52:31;;;;;;;3.65;3.03;;;12.60;99.90;;;;;;5069069;28;20224;-70
2022/05/30 07:54:58;;;;;;;5.00;3.10;;;12.70;99.90;;;;;;5070951;28;20200;-71
2022/05/30 08:00:09;;;;;;;5.33;2.97;;;12.50;99.90;;;;;;5031869;28;20542;-70
2022/05/30 08:02:35;;;;;;;3.47;2.90;;;12.50;99.90;;;;;;5033574;28;20891;-71
2022/05/30 08:05:02;;;;;;;3.35;2.75;;;12.50;99.90;;;;;;5033040;28;20534;-71
2022/05/30 08:07:29;;;;;;;5.50;2.80;;;12.60;99.90;;;;;;5033123;28;20202;-71
2022/05/30 08:09:55;;;;;;;6.20;3.10;;;12.70;99.90;;;;;;5032878;28;20957;-71
2022/05/30 08:12:22;;;;;;;3.77;2.33;;;12.80;99.90;;;;;;5033592;28;20483;-70
2022/05/30 08:14:49;;;;;;;5.57;2.50;;;13.00;99.90;;;;;;5033440;28;20471;-71
2022/05/30 08:17:17;;;;;;;4.57;2.87;;;13.10;99.90;;;;;;5033537;28;20882;-71
2022/05/30 08:19:44;;;;;;;3.53;2.97;;;13.10;99.90;;;;;;5032453;28;20830;-71
2022/05/30 08:22:13;;;;;;;3.70;2.67;;;13.10;99.90;;;;;;5033106;28;20495;-70
2022/05/30 08:24:41;;;;;;;3.87;2.93;;;13.20;99.90;;;;;;5033399;28;20472;-71
2022/05/30 08:27:09;;;;;;;7.67;3.30;;;13.30;99.90;;;;;;5032911;28;20963;-71
2022/05/30 08:29:35;;;;;;;3.20;2.90;;;13.50;99.90;;;;;;5032391;28;20982;-70
2022/05/30 08:32:02;;;;;;;4.10;3.03;;;13.70;99.90;;;;;;5032649;28;20456;-70
2022/05/30 08:34:31;;;;;;;3.87;2.67;;;13.90;99.90;;;;;;5033186;28;20467;-70
2022/05/30 08:37:00;;;;;;;2.37;2.17;;;14.10;99.90;;;;;;5032496;28;20460;-71
2022/05/30 08:42:11;;;;;;;4.90;2.87;;;14.40;99.90;;;;;;5032871;28;20463;-71
2022/05/30 08:44:38;;;;;;;4.03;3.17;;;14.40;99.90;;;;;;5031808;28;20955;-71
2022/05/30 08:47:13;;;;;;;3.13;2.90;;;14.50;99.90;;;;;;5032498;28;20540;-71
2022/05/30 08:49:47;;;;;;;4.20;2.70;;;14.50;99.90;;;;;;5032229;28;20459;-71
2022/05/30 08:52:41;;;;;;;4.00;2.27;;;14.70;99.90;;;;;;5031872;28;20995;-70
2022/05/30 08:55:28;;;;;;;10.03;3.10;;;14.70;99.90;;;;;;5018433;28;20464;-71
2022/05/30 08:58:03;;;;;;;3.50;2.73;;;14.50;99.30;;;;;;5031796;28;20921;-70
2022/05/30 09:00:34;;;;;;;4.70;2.40;;;14.50;99.90;;;;;;5032360;28;20702;-70
2022/05/30 09:03:06;;;;;;;4.20;2.80;;;14.60;98.60;;;;;;5032182;28;20852;-71
2022/05/30 09:05:39;;;;;;;2.90;2.60;;;14.60;99.40;;;;;;5031164;28;20990;-71
2022/05/30 09:08:10;;;;;;;3.93;3.00;;;14.70;99.80;;;;;;5030742;28;20840;-71
2022/05/30 09:10:41;;;;;;;3.10;2.60;;;15.00;99.80;;;;;;5032231;28;20468;-70
2022/05/30 09:13:19;;;;;;;3.17;2.53;;;15.30;99.70;;;;;;5031828;28;20488;-71
2022/05/30 09:15:51;;;;;;;3.83;2.03;;;15.50;97.50;;;;;;5032290;28;20460;-70
2022/05/30 09:18:23;;;;;;;5.33;2.60;;;15.50;97.00;;;;;;5031603;28;20894;-71
2022/05/30 09:20:51;;;;;;;3.90;3.00;;;15.50;97.90;;;;;;5031408;28;20852;-71
2022/05/30 09:23:22;;;;;;;2.90;2.30;;;15.40;96.10;;;;;;5031852;28;20488;-71
2022/05/30 09:26:00;;;;;;;2.80;2.37;;;15.40;97.40;;;;;;5031690;28;20473;-71
2022/05/30 09:28:30;;;;;;;2.93;2.10;;;15.70;97.70;;;;;;5031051;28;20526;-70
2022/05/30 09:31:09;;;;;;;3.10;2.70;;;16.00;97.20;;;;;;5031519;28;20467;-71
2022/05/30 09:33:39;;;;;;;3.63;2.00;;;16.20;97.00;;;;;;5030883;28;20484;-70
2022/05/30 09:36:17;;;;;;;3.30;2.00;;;16.50;96.40;;;;;;5031373;28;20464;-70
2022/05/30 09:38:47;;;;;;;5.00;1.97;;;16.70;95.90;;;;;;5030938;28;20491;-71
2022/05/30 09:41:19;;;;;;;3.30;1.80;;;16.90;95.40;;;;;;5031374;28;20468;-70
2022/05/30 09:43:58;;;;;;;2.40;1.83;;;17.10;96.30;;;;;;5030226;28;20503;-71
2022/05/30 09:46:31;;;;;;;3.47;1.97;;;17.30;96.40;;;;;;5031228;28;20504;-71
2022/05/30 09:49:01;;;;;;;2.27;1.90;;;17.50;93.90;;;;;;5030396;28;20464;-71
2022/05/30 09:51:37;;;;;;;3.27;2.10;;;17.50;94.00;;;;;;5030742;28;20571;-71
2022/05/30 09:54:05;;;;;;;2.70;2.00;;;17.60;93.10;;;;;;5030874;28;20479;-71
2022/05/30 09:56:39;;;;;;;2.53;1.70;;;17.70;93.60;;;;;;5030819;28;20960;-71
2022/05/30 09:59:11;;;;;;;2.70;2.10;;;17.60;92.00;;;;;;5030016;28;20916;-71
2022/05/30 10:01:38;;;;;;;1.97;1.50;;;17.50;93.30;;;;;;5030948;28;20843;-70
2022/05/30 10:04:23;;;;;;;2.20;1.50;;;17.50;91.30;;;;;;5030430;28;20495;-71
2022/05/30 10:07:09;;;;;;;1.83;1.30;;;17.60;91.00;;;;;;5030560;28;20552;-71
2022/05/30 10:09:41;;;;;;;3.20;2.00;;;17.90;90.90;;;;;;5030133;28;20462;-70
2022/05/30 10:12:09;;;;;;;2.73;1.50;;;18.10;91.40;;;;;;5030045;28;21014;-70
2022/05/30 10:14:39;;;;;;;4.57;1.50;;;18.00;91.10;;;;;;5041994;28;20457;-71
2022/05/30 10:17:15;;;;;;;2.97;1.63;;;17.80;91.20;;;;;;5050103;28;20550;-70
2022/05/30 10:19:47;;;;;;;3.83;1.70;;;17.50;91.40;;;;;;5049761;28;20514;-71
2022/05/30 10:28:20;;;;;;;2.03;1.80;;;16.80;89.60;;;;;;5049388;28;20489;-71
2022/05/30 10:30:57;;;;;;;3.20;1.90;;;16.50;89.40;;;;;;5050435;28;20468;-70
2022/05/30 10:33:41;;;;;;;2.60;1.30;;;16.40;89.00;;;;;;5049370;28;20479;-71
2022/05/30 10:36:18;;;;;;;1.90;1.60;;;16.20;86.90;;;;;;5050190;28;20467;-71
2022/05/30 10:39:00;;;;;;;2.50;1.80;;;16.20;89.00;;;;;;5049533;28;21016;-71
2022/05/30 10:41:47;;;;;;;4.10;1.43;;;16.10;90.60;;;;;;5050426;28;20467;-71
2022/05/30 10:44:22;;;;;;;1.83;1.47;;;16.00;90.20;;;;;;5049709;28;20467;-71
2022/05/30 10:46:58;;;;;;;2.47;1.40;;;15.90;90.50;;;;;;5049385;28;20562;-71
2022/05/30 10:49:29;;;;;;;2.40;1.50;;;16.00;85.10;;;;;;5049256;28;20455;-71
2022/05/30 10:52:00;;;;;;;1.60;1.30;;;16.00;86.80;;;;;;5049333;28;20455;-72
2022/05/30 10:54:34;;;;;;;2.80;1.63;;;16.10;87.80;;;;;;5050052;28;20455;-71
2022/05/30 10:57:11;;;;;;;2.00;1.60;;;16.40;88.00;;;;;;5048778;28;20506;-71
2022/05/30 10:59:43;;;;;;;2.63;1.40;;;16.90;90.50;;;;;;5049527;28;20505;-71
2022/05/30 11:02:16;;;;;;;2.40;1.50;;;17.40;88.40;;;;;;5048967;28;20517;-71
2022/05/30 11:04:51;;;;;;;2.30;1.20;;;17.60;79.50;;;;;;5049656;28;20467;-71
2022/05/30 11:07:39;;;;;;;2.20;1.50;;;17.60;86.40;;;;;;5050035;28;20549;-71
2022/05/30 11:10:20;;;;;;;1.47;1.27;;;18.00;90.20;;;;;;5048070;28;20834;-71
2022/05/30 11:12:54;;;;;;;3.50;1.87;;;18.40;87.20;;;;;;5049440;28;20537;-71
2022/05/30 11:15:28;;;;;;;2.13;1.70;;;18.40;83.70;;;;;;5049470;28;20473;-72
2022/05/30 11:18:01;;;;;;;2.40;1.57;;;18.60;81.30;;;;;;5054700;28;20470;-71
2022/05/30 11:20:33;;;;;;;9.90;2.33;;;18.40;82.60;;;;;;5069334;28;20818;-70
2022/05/30 11:23:00;;;;;;;3.20;1.63;;;18.40;84.70;;;;;;5068643;28;20510;-70
2022/05/30 11:25:38;;;;;;;2.87;1.60;;;18.50;81.40;;;;;;5069668;28;20485;-71
2022/05/30 11:28:17;;;;;;;1.53;1.40;;;18.80;81.40;;;;;;5068007;28;20462;-71
2022/05/30 11:30:53;;;;;;;1.77;1.60;;;19.10;85.20;;;;;;5069103;28;20465;-71
2022/05/30 11:33:43;;;;;;;1.97;1.33;;;19.20;81.70;;;;;;5068815;28;20474;-70
2022/05/30 11:36:25;;;;;;;3.07;1.33;;;19.10;82.00;;;;;;5057509;28;20486;-70
2022/05/30 11:39:03;;;;;;;1.63;1.43;;;18.90;82.90;;;;;;5068444;28;20851;-70
2022/05/30 11:41:44;;;;;;;2.60;1.60;;;18.60;81.60;;;;;;5069309;28;20461;-70
2022/05/30 11:44:36;;;;;;;1.73;1.63;;;18.50;86.70;;;;;;5068634;28;21358;-70
2022/05/30 11:47:14;;;;;;;1.97;1.20;;;18.40;85.80;;;;;;5068759;28;20469;-70
2022/05/30 11:49:49;;;;;;;4.53;1.70;;;18.20;85.00;;;;;;5068463;28;20450;-70
2022/05/30 11:52:23;;;;;;;2.50;2.00;;;18.00;82.80;;;;;;5069252;28;20478;-70
2022/05/30 11:55:04;;;;;;;2.60;1.70;;;17.80;83.50;;;;;;5063354;28;20451;-69
2022/05/30 11:57:38;;;;;;;1.90;1.70;;;17.60;83.20;;;;;;5049611;28;20963;-70
2022/05/30 12:00:10;;;;;;;2.00;1.80;;;17.50;82.40;;;;;;5048778;28;20490;-70
2022/05/30 12:03:13;;;;;;;2.27;1.60;;;17.50;82.10;;;;;;5049674;28;20502;-70
2022/05/30 12:06:06;;;;;;;4.80;2.00;;;17.90;80.30;;;;;;5046357;28;20973;-70
2022/05/30 12:09:07;;;;;;;2.50;2.00;;;18.50;85.20;;;;;;5049266;28;20538;-70
2022/05/30 12:12:00;;;;;;;2.10;1.80;;;19.10;76.90;;;;;;5049458;28;20838;-71
2022/05/30 12:14:51;;;;;;;1.53;1.43;;;19.30;77.10;;;;;;5049589;28;20463;-71
2022/05/30 12:23:47;;;;;;;2.47;1.33;;;19.40;83.70;;;;;;5017411;28;20501;-70
2022/05/30 12:26:56;;;;;;;3.90;1.70;;;20.40;82.30;;;;;;5089892;28;20456;-70
2022/05/30 12:29:54;;;;;;;2.30;1.77;;;20.70;83.70;;;;;;5089591;28;21123;-70
2022/05/30 12:32:50;;;;;;;1.60;1.50;;;21.00;81.20;;;;;;5073441;28;20485;-70
2022/05/30 12:35:26;;;;;;;1.80;1.60;;;20.70;79.70;;;;;;5090416;28;20464;-70
2022/05/30 12:38:10;;;;;;;1.70;1.53;;;20.30;81.40;;;;;;5089664;28;20476;-71
2022/05/30 12:40:39;;;;;;;1.57;1.33;;;20.20;80.70;;;;;;5091152;28;20886;-70
2022/05/30 12:43:32;;;;;;;3.87;1.57;;;20.00;79.90;;;;;;5092799;28;20898;-71
2022/05/30 12:46:13;;;;;;;2.17;1.87;;;19.70;79.00;;;;;;5093099;28;20461;-71
2022/05/30 12:48:44;;;;;;;2.70;1.67;;;19.30;80.90;;;;;;5092142;28;20460;-71
2022/05/30 12:51:20;;;;;;;3.37;1.70;;;19.10;81.30;;;;;;5092858;28;20510;-71
2022/05/30 12:54:16;;;;;;;2.27;1.50;;;18.80;79.70;;;;;;5092816;28;20480;-71
2022/05/30 12:57:04;;;;;;;4.67;2.00;;;18.80;83.60;;;;;;5092984;28;20485;-71
2022/05/30 12:59:33;;;;;;;1.77;1.67;;;18.70;83.90;;;;;;5092288;28;21084;-71
2022/05/30 13:02:04;;;;;;;3.67;1.70;;;18.60;83.30;;;;;;5092308;28;21018;-71
2022/05/30 13:04:35;;;;;;;2.30;2.10;;;18.90;85.60;;;;;;5092817;28;20465;-71
2022/05/30 13:07:16;;;;;;;2.10;1.90;;;19.40;85.60;;;;;;5092422;28;20454;-71
2022/05/30 13:09:44;;;;;;;3.23;1.80;;;20.00;77.70;;;;;;5092112;28;20576;-71
2022/05/30 13:12:56;;;;;;;2.30;1.63;;;20.00;74.00;;;;;;5091680;28;20508;-71
2022/05/30 13:15:37;;;;;;;2.67;1.77;;;20.00;78.90;;;;;;5086396;28;20480;-71
2022/05/30 13:18:14;;;;;;;2.77;1.93;;;19.90;81.70;;;;;;5070811;28;20462;-71
2022/05/30 13:20:46;;;;;;;2.23;1.60;;;19.80;74.20;;;;;;5071703;28;20450;-70
2022/05/30 13:23:15;;;;;;;3.70;2.07;;;19.60;78.80;;;;;;5070516;28;21016;-71
2022/05/30 13:25:46;;;;;;;4.33;2.13;;;19.40;78.80;;;;;;5071383;28;20465;-70
2022/05/30 13:28:17;;;;;;;1.90;1.60;;;19.20;74.40;;;;;;5070732;28;20462;-70
2022/05/30 13:30:44;;;;;;;2.07;1.43;;;18.80;74.50;;;;;;5071200;28;20469;-71
2022/05/30 13:33:22;;;;;;;1.57;1.40;;;18.50;75.70;;;;;;5070817;28;20497;-71
2022/05/30 13:35:53;;;;;;;3.50;1.57;;;18.40;78.80;;;;;;5070964;28;20462;-71
2022/05/30 13:38:26;;;;;;;3.20;1.90;;;18.50;82.20;;;;;;5070202;28;20466;-71
2022/05/30 13:40:53;;;;;;;2.90;1.70;;;18.90;73.10;;;;;;5071029;28;20458;-71
2022/05/30 13:43:22;;;;;;;2.07;1.57;;;19.10;74.60;;;;;;5070543;28;20515;-71
2022/05/30 13:45:48;;;;;;;4.10;1.93;;;19.20;76.40;;;;;;5070682;28;20468;-71